Time;durP1;ratioP1;P1;durP2;ratioP2;P2;SDS_P1;SDS_P2;PMS_P1;PMS_P2;Temp;Humidity;BMP_temperature;BMP_pressure;BME280_temperature;BME280_humidity;BME280_pressure;Samples;Min_cycle;Max_cycle;Signal;HPM_P1;HPM_P2
2023/01/03 00:00:15;;;;;;;1.30;1.00;;;9.20;99.90;;;;;;5114339;28;20086;-73
2023/01/03 00:02:40;;;;;;;2.40;0.88;;;9.20;99.90;;;;;;5095482;28;20031;-73
2023/01/03 00:05:07;;;;;;;1.88;1.02;;;9.20;99.90;;;;;;5095908;28;20027;-73
2023/01/03 00:07:32;;;;;;;2.03;1.10;;;9.20;99.90;;;;;;5113374;28;20077;-74
2023/01/03 00:10:04;;;;;;;2.10;1.30;;;9.10;99.90;;;;;;5114114;28;20063;-73
2023/01/03 00:12:31;;;;;;;0.82;0.80;;;9.10;99.90;;;;;;5095176;28;20043;-73
2023/01/03 00:14:58;;;;;;;1.10;0.93;;;9.10;99.90;;;;;;5096027;28;20380;-73
2023/01/03 00:17:23;;;;;;;1.10;0.82;;;9.20;99.90;;;;;;5095744;28;20048;-73
2023/01/03 00:19:49;;;;;;;1.48;1.00;;;9.20;99.90;;;;;;5095259;28;20027;-73
2023/01/03 00:22:16;;;;;;;2.05;1.20;;;9.20;99.90;;;;;;5095349;28;20034;-73
2023/01/03 00:24:43;;;;;;;1.73;1.10;;;9.20;99.90;;;;;;5095186;28;20084;-73
2023/01/03 00:27:09;;;;;;;2.20;1.13;;;9.20;99.90;;;;;;5095593;28;20034;-73
2023/01/03 00:29:35;;;;;;;1.98;0.93;;;9.20;99.90;;;;;;5094966;28;20119;-73
2023/01/03 00:32:00;;;;;;;1.10;0.90;;;9.20;99.90;;;;;;5113694;28;20364;-73
2023/01/03 00:34:26;;;;;;;1.83;1.13;;;9.20;99.90;;;;;;5113665;28;20108;-73
2023/01/03 00:36:52;;;;;;;2.15;1.08;;;9.20;99.90;;;;;;5113143;28;20047;-73
2023/01/03 00:39:18;;;;;;;1.73;1.20;;;9.20;99.90;;;;;;5113585;28;20028;-73
2023/01/03 00:41:43;;;;;;;2.08;1.17;;;9.20;99.90;;;;;;5113022;28;20460;-73
2023/01/03 00:44:09;;;;;;;1.88;1.10;;;9.20;99.90;;;;;;5095222;28;20524;-73
2023/01/03 00:46:35;;;;;;;1.42;0.90;;;9.20;99.90;;;;;;5112778;28;20064;-73
2023/01/03 00:49:02;;;;;;;2.95;1.00;;;9.20;99.90;;;;;;5095169;28;20028;-73
2023/01/03 00:51:30;;;;;;;1.48;1.00;;;9.20;99.90;;;;;;5095193;28;20031;-73
2023/01/03 00:53:58;;;;;;;2.35;1.17;;;9.20;99.90;;;;;;5095155;28;20028;-73
2023/01/03 00:56:30;;;;;;;1.80;1.35;;;9.20;99.90;;;;;;5113403;28;20031;-73
2023/01/03 00:58:56;;;;;;;;;;;9.10;99.90;;;;;;5113750;28;20066;-73
2023/01/03 01:01:32;;;;;;;3.00;1.10;;;9.10;99.90;;;;;;5113255;28;19914;-73
2023/01/03 01:04:31;;;;;;;1.52;0.90;;;9.10;99.90;;;;;;5095293;28;20049;-73
2023/01/03 01:06:59;;;;;;;2.92;0.98;;;9.00;99.90;;;;;;5058028;28;20035;-73
2023/01/03 01:09:28;;;;;;;2.53;1.20;;;9.00;99.90;;;;;;5113154;28;20078;-73
2023/01/03 01:11:54;;;;;;;2.35;1.05;;;9.00;99.90;;;;;;5112380;28;20028;-74
2023/01/03 01:14:23;;;;;;;2.00;1.10;;;9.00;99.90;;;;;;5094956;28;20020;-73
2023/01/03 01:16:54;;;;;;;2.95;1.20;;;9.00;99.90;;;;;;5094147;28;20484;-73
2023/01/03 01:19:27;;;;;;;1.90;1.00;;;9.00;99.90;;;;;;5094931;28;20024;-73
2023/01/03 01:21:53;;;;;;;1.48;1.10;;;9.00;99.90;;;;;;5094362;28;20522;-73
2023/01/03 01:24:18;;;;;;;1.50;1.10;;;9.00;99.90;;;;;;5112997;28;20103;-73
2023/01/03 01:26:45;;;;;;;1.40;1.00;;;9.10;99.90;;;;;;5094243;28;20435;-73
2023/01/03 01:29:12;;;;;;;1.27;1.00;;;9.10;99.90;;;;;;5113277;28;20426;-73
2023/01/03 01:31:38;;;;;;;1.65;1.00;;;9.10;99.90;;;;;;5094209;28;20131;-74
2023/01/03 01:34:04;;;;;;;2.40;1.30;;;9.20;99.90;;;;;;5097840;28;20028;-73
2023/01/03 01:36:36;;;;;;;2.78;1.17;;;9.20;99.90;;;;;;5098863;28;20088;-73
2023/01/03 01:39:05;;;;;;;1.95;1.05;;;9.20;99.90;;;;;;5099134;28;20388;-72
2023/01/03 01:44:41;;;;;;;1.42;0.90;;;9.20;99.90;;;;;;5117066;28;20567;-72
2023/01/03 01:47:33;;;;;;;2.53;1.00;;;9.20;99.90;;;;;;5098505;28;20495;-72
2023/01/03 01:50:20;;;;;;;2.20;1.17;;;9.10;99.90;;;;;;5098755;28;20024;-73
2023/01/03 01:53:03;;;;;;;2.40;1.00;;;9.10;99.90;;;;;;5097946;28;20023;-72
2023/01/03 01:55:48;;;;;;;3.70;1.20;;;9.10;99.90;;;;;;5116844;28;20027;-73
2023/01/03 01:58:14;;;;;;;2.08;1.05;;;9.00;99.90;;;;;;5098411;28;20027;-73
2023/01/03 02:00:41;;;;;;;1.88;1.20;;;9.00;99.90;;;;;;5097771;28;20447;-73
2023/01/03 02:03:08;;;;;;;1.92;1.23;;;8.90;99.90;;;;;;5098247;28;20073;-72
2023/01/03 02:05:59;;;;;;;1.75;1.30;;;8.90;99.90;;;;;;5098218;28;20028;-72
2023/01/03 02:08:25;;;;;;;1.30;0.90;;;8.90;99.90;;;;;;5116389;28;20103;-72
2023/01/03 02:11:20;;;;;;;1.95;1.10;;;8.80;99.90;;;;;;5097440;28;20470;-73
2023/01/03 02:13:59;;;;;;;1.55;1.10;;;8.80;99.90;;;;;;5008802;28;20042;-73
2023/01/03 02:16:47;;;;;;;1.98;1.15;;;8.90;99.90;;;;;;5097877;28;20023;-73
2023/01/03 02:19:31;;;;;;;1.20;0.80;;;8.80;99.90;;;;;;5116390;28;20023;-73
2023/01/03 02:22:25;;;;;;;2.55;0.90;;;8.80;99.90;;;;;;5097457;28;20031;-72
2023/01/03 02:25:22;;;;;;;1.52;0.98;;;8.80;99.90;;;;;;5059088;28;20059;-73
2023/01/03 02:28:24;;;;;;;1.52;0.90;;;8.80;99.90;;;;;;5115772;28;20032;-73
2023/01/03 02:31:12;;;;;;;1.63;1.15;;;8.50;99.90;;;;;;5097247;28;20361;-72
2023/01/03 02:33:59;;;;;;;2.60;1.00;;;8.50;99.90;;;;;;5097314;28;20055;-73
2023/01/03 02:37:04;;;;;;;1.35;1.00;;;8.60;99.90;;;;;;5115714;28;20027;-73
2023/01/03 02:39:52;;;;;;;1.83;0.90;;;8.60;99.90;;;;;;5059551;28;20032;-73
2023/01/03 02:45:17;;;;;;;1.35;1.00;;;8.50;99.90;;;;;;5115652;28;20047;-73
2023/01/03 02:47:51;;;;;;;1.05;0.88;;;8.50;99.90;;;;;;5114967;28;20461;-73
2023/01/03 02:50:22;;;;;;;1.48;1.10;;;8.50;99.90;;;;;;5116062;28;20059;-73
2023/01/03 02:52:51;;;;;;;2.33;1.15;;;8.40;99.90;;;;;;5097020;28;20457;-73
2023/01/03 02:55:25;;;;;;;4.25;1.20;;;8.40;99.90;;;;;;5097426;28;20028;-73
2023/01/03 02:58:00;;;;;;;2.08;1.08;;;8.40;99.90;;;;;;5096528;28;20028;-73
2023/01/03 03:00:29;;;;;;;3.40;1.05;;;8.40;99.90;;;;;;5115510;28;20123;-73
2023/01/03 03:03:05;;;;;;;1.73;0.90;;;8.40;99.90;;;;;;5096700;28;20484;-72
2023/01/03 03:05:44;;;;;;;1.20;0.80;;;8.40;99.90;;;;;;5097293;28;20034;-72
2023/01/03 03:08:10;;;;;;;2.08;1.08;;;8.40;99.90;;;;;;5097308;28;20057;-73
2023/01/03 03:13:36;;;;;;;1.48;0.95;;;8.40;99.90;;;;;;5115395;28;20118;-72
2023/01/03 03:16:46;;;;;;;1.65;1.00;;;8.40;99.90;;;;;;5096453;28;20050;-72
2023/01/03 03:25:24;;;;;;;1.80;1.20;;;8.30;99.90;;;;;;5114915;28;20050;-72
2023/01/03 03:30:42;;;;;;;1.77;1.20;;;8.30;99.90;;;;;;5115015;28;20088;-72
2023/01/03 03:33:11;;;;;;;3.92;1.40;;;8.30;99.90;;;;;;5114565;28;20023;-72
2023/01/03 03:35:57;;;;;;;2.28;1.10;;;8.20;99.90;;;;;;5114799;28;20027;-72
2023/01/03 03:38:42;;;;;;;1.85;1.00;;;8.10;99.90;;;;;;5096501;28;20358;-72
2023/01/03 03:48:05;;;;;;;2.53;1.23;;;8.00;99.90;;;;;;5114353;28;20085;-72
2023/01/03 03:50:52;;;;;;;2.13;1.20;;;8.10;99.90;;;;;;5096436;28;20043;-73
2023/01/03 03:53:23;;;;;;;2.75;1.13;;;8.10;99.90;;;;;;5096260;28;20020;-73
2023/01/03 03:55:59;;;;;;;2.13;1.40;;;8.00;99.90;;;;;;5113255;28;20098;-73
2023/01/03 03:58:35;;;;;;;2.40;1.45;;;7.90;99.90;;;;;;5096067;28;20034;-72
2023/01/03 04:01:02;;;;;;;3.05;1.40;;;7.80;99.90;;;;;;5095517;28;20184;-72
2023/01/03 04:03:30;;;;;;;1.85;1.27;;;7.80;99.90;;;;;;5096024;28;20024;-72
2023/01/03 04:06:08;;;;;;;2.67;1.50;;;7.80;99.90;;;;;;5113720;28;20034;-73
2023/01/03 04:08:33;;;;;;;1.83;1.10;;;7.80;99.90;;;;;;5096105;28;20358;-74
2023/01/03 04:11:05;;;;;;;4.60;1.20;;;7.70;99.90;;;;;;5095400;28;20032;-73
2023/01/03 04:13:32;;;;;;;2.38;0.98;;;7.70;99.90;;;;;;5114179;28;20049;-72
2023/01/03 04:15:57;;;;;;;2.08;1.40;;;7.60;99.90;;;;;;5095254;28;20031;-73
2023/01/03 04:18:23;;;;;;;1.65;1.10;;;7.50;99.90;;;;;;5114214;28;20101;-73
2023/01/03 04:20:48;;;;;;;3.88;1.20;;;7.30;99.90;;;;;;5095128;28;20032;-73
2023/01/03 04:23:14;;;;;;;1.67;1.15;;;7.30;99.90;;;;;;5096016;28;20027;-73
2023/01/03 04:25:40;;;;;;;2.65;1.20;;;7.30;99.90;;;;;;5113812;28;20521;-72
2023/01/03 04:28:05;;;;;;;2.10;1.30;;;7.30;99.90;;;;;;5095043;28;20036;-73
2023/01/03 04:30:31;;;;;;;2.60;1.35;;;7.40;99.90;;;;;;5113738;28;20027;-72
2023/01/03 04:32:56;;;;;;;1.63;1.17;;;7.30;99.90;;;;;;5113157;28;20403;-73
2023/01/03 04:35:22;;;;;;;2.33;1.17;;;7.30;99.90;;;;;;5095449;28;20024;-72
2023/01/03 04:37:48;;;;;;;1.48;1.20;;;7.30;99.90;;;;;;5094926;28;20066;-72
2023/01/03 04:40:13;;;;;;;2.58;1.25;;;7.40;99.90;;;;;;5095297;28;20027;-72
2023/01/03 04:45:23;;;;;;;1.58;1.20;;;7.30;99.90;;;;;;5113697;28;20075;-72
2023/01/03 04:47:48;;;;;;;1.30;1.20;;;7.30;99.90;;;;;;5112936;28;20035;-73
2023/01/03 04:50:14;;;;;;;1.85;1.10;;;7.20;99.90;;;;;;5113914;28;20034;-73
2023/01/03 04:52:39;;;;;;;1.70;1.13;;;7.20;99.90;;;;;;5095155;28;20045;-72
2023/01/03 04:55:06;;;;;;;2.10;1.40;;;7.10;99.90;;;;;;5113123;28;20457;-73
2023/01/03 04:57:31;;;;;;;1.92;1.13;;;7.10;99.90;;;;;;5095162;28;20020;-73
2023/01/03 04:59:57;;;;;;;2.15;1.05;;;7.00;99.90;;;;;;5112520;28;20069;-73
2023/01/03 05:02:22;;;;;;;1.05;1.00;;;7.00;99.90;;;;;;5095061;28;20049;-73
2023/01/03 05:04:48;;;;;;;2.72;1.10;;;6.90;99.90;;;;;;5112790;28;20031;-73
2023/01/03 05:07:13;;;;;;;1.55;0.80;;;6.90;99.90;;;;;;5094992;28;20028;-73
2023/01/03 05:09:39;;;;;;;1.05;0.70;;;6.90;99.90;;;;;;5095005;28;20496;-73
2023/01/03 05:12:05;;;;;;;1.80;1.10;;;6.90;99.90;;;;;;5094461;28;20524;-73
2023/01/03 05:14:30;;;;;;;2.17;1.00;;;6.80;99.90;;;;;;5113142;28;20024;-72
2023/01/03 05:16:56;;;;;;;3.30;1.20;;;6.80;99.90;;;;;;5112591;28;20476;-73
2023/01/03 05:19:21;;;;;;;1.63;1.10;;;6.70;99.90;;;;;;5094914;28;20020;-73
2023/01/03 05:27:15;;;;;;;1.77;1.43;;;6.50;99.90;;;;;;5112968;28;20035;-72
2023/01/03 05:29:42;;;;;;;1.27;1.10;;;6.50;99.90;;;;;;5094915;28;20032;-72
2023/01/03 05:32:08;;;;;;;2.50;1.10;;;6.40;99.90;;;;;;5094274;28;20080;-72
2023/01/03 05:34:34;;;;;;;1.93;0.90;;;6.40;99.90;;;;;;5112740;28;20028;-73
2023/01/03 05:36:59;;;;;;;1.97;1.07;;;6.40;99.90;;;;;;5094239;28;20479;-72
2023/01/03 05:39:25;;;;;;;2.60;0.90;;;6.40;99.90;;;;;;5112941;28;20074;-72
2023/01/03 05:41:59;;;;;;;2.83;1.30;;;6.40;99.90;;;;;;5111992;28;20065;-73
2023/01/03 05:44:30;;;;;;;3.47;1.50;;;6.30;99.90;;;;;;5094903;28;20024;-72
2023/01/03 05:46:59;;;;;;;1.40;1.10;;;6.30;99.90;;;;;;5094155;28;20027;-73
2023/01/03 05:49:25;;;;;;;2.03;1.27;;;6.30;99.90;;;;;;5094548;28;20023;-72
2023/01/03 05:51:51;;;;;;;1.10;0.97;;;6.30;99.90;;;;;;5094042;28;20465;-73
2023/01/03 05:54:18;;;;;;;2.80;1.00;;;6.40;99.90;;;;;;5094701;28;20024;-72
2023/01/03 05:56:44;;;;;;;1.33;1.20;;;6.50;99.90;;;;;;5093926;28;20065;-72
2023/01/03 05:59:10;;;;;;;1.13;1.03;;;6.40;99.90;;;;;;5112354;28;20478;-72
2023/01/03 06:01:36;;;;;;;1.70;1.20;;;6.40;99.90;;;;;;5112627;28;20104;-72
2023/01/03 06:04:02;;;;;;;1.53;1.07;;;6.30;99.90;;;;;;5094011;28;20467;-72
2023/01/03 06:06:27;;;;;;;1.53;1.10;;;6.30;99.90;;;;;;5094402;28;20081;-72
2023/01/03 06:08:53;;;;;;;2.23;1.17;;;6.30;99.90;;;;;;5094104;28;20028;-73
2023/01/03 06:11:19;;;;;;;1.83;1.20;;;6.20;99.90;;;;;;5112635;28;20376;-72
2023/01/03 06:13:45;;;;;;;1.87;1.20;;;6.30;99.90;;;;;;5112829;28;20020;-73
2023/01/03 06:19:01;;;;;;;1.73;1.10;;;6.20;99.90;;;;;;5113323;28;20496;-73
2023/01/03 06:21:27;;;;;;;1.53;1.10;;;6.20;99.90;;;;;;5116207;28;20465;-72
2023/01/03 06:23:53;;;;;;;1.80;1.63;;;6.10;99.90;;;;;;5097506;28;20035;-73
2023/01/03 06:26:21;;;;;;;1.77;1.47;;;6.40;99.90;;;;;;5097839;28;20024;-73
2023/01/03 06:28:47;;;;;;;4.87;1.50;;;6.40;99.90;;;;;;5097831;28;20036;-72
2023/01/03 06:31:12;;;;;;;2.03;1.20;;;6.50;99.90;;;;;;5097278;28;20054;-72
2023/01/03 06:33:39;;;;;;;1.80;1.20;;;6.40;99.90;;;;;;5097433;28;20468;-73
2023/01/03 06:36:16;;;;;;;1.43;1.10;;;6.40;99.90;;;;;;5115526;28;20035;-72
2023/01/03 06:38:42;;;;;;;6.33;1.43;;;6.40;99.90;;;;;;5097838;28;20104;-72
2023/01/03 06:41:08;;;;;;;1.30;1.13;;;6.40;99.90;;;;;;5097126;28;20066;-72
2023/01/03 06:43:33;;;;;;;2.87;1.20;;;6.40;99.90;;;;;;5115867;28;20354;-72
2023/01/03 06:54:26;;;;;;;3.17;1.30;;;6.30;99.90;;;;;;5115309;28;20102;-73
2023/01/03 06:56:53;;;;;;;1.73;1.13;;;6.30;99.90;;;;;;5096807;28;20465;-75
2023/01/03 06:59:19;;;;;;;2.10;1.40;;;6.20;99.90;;;;;;5115530;28;20067;-73
2023/01/03 07:01:46;;;;;;;5.57;1.80;;;6.20;99.90;;;;;;5115475;28;20066;-72
2023/01/03 07:04:12;;;;;;;2.50;1.40;;;6.10;99.90;;;;;;5096745;28;20046;-73
2023/01/03 07:06:39;;;;;;;4.20;1.60;;;6.00;99.90;;;;;;5115507;28;20026;-73
2023/01/03 07:09:05;;;;;;;2.63;1.60;;;5.90;99.90;;;;;;5114873;28;20153;-73
2023/01/03 07:11:31;;;;;;;4.43;1.60;;;5.90;99.90;;;;;;5115341;28;20023;-72
2023/01/03 07:13:57;;;;;;;2.77;1.53;;;5.90;99.90;;;;;;5096597;28;20023;-73
2023/01/03 07:16:23;;;;;;;3.07;1.40;;;5.90;99.90;;;;;;5097002;28;20028;-73
2023/01/03 07:18:49;;;;;;;3.00;1.53;;;5.90;99.90;;;;;;5115233;28;20055;-73
2023/01/03 07:21:14;;;;;;;3.13;1.77;;;5.80;99.90;;;;;;5114505;28;20089;-72
2023/01/03 07:23:40;;;;;;;5.60;2.17;;;5.70;99.90;;;;;;5096506;28;20477;-72
2023/01/03 07:26:06;;;;;;;2.23;1.40;;;5.70;99.90;;;;;;5114480;28;20032;-72
2023/01/03 07:28:32;;;;;;;2.97;1.53;;;5.70;99.90;;;;;;5096329;28;20031;-72
2023/01/03 07:31:04;;;;;;;1.93;1.37;;;5.70;99.90;;;;;;5113353;28;20043;-73
2023/01/03 07:33:31;;;;;;;3.77;1.40;;;5.80;99.90;;;;;;5114821;28;20028;-72
2023/01/03 07:36:03;;;;;;;3.80;1.57;;;5.80;99.90;;;;;;5095964;28;20055;-73
2023/01/03 07:38:28;;;;;;;2.65;1.50;;;5.80;99.90;;;;;;5114775;28;20028;-73
2023/01/03 07:41:02;;;;;;;2.83;1.70;;;5.80;99.90;;;;;;5114063;28;20100;-78
2023/01/03 07:43:37;;;;;;;5.47;1.60;;;5.80;99.90;;;;;;5096382;28;20031;-73
2023/01/03 07:46:17;;;;;;;3.60;1.73;;;5.80;99.90;;;;;;5095925;28;20411;-72
2023/01/03 07:48:44;;;;;;;2.57;1.67;;;5.70;99.90;;;;;;5095858;28;20028;-72
2023/01/03 07:51:12;;;;;;;3.03;1.50;;;5.70;99.90;;;;;;5095811;28;20038;-73
2023/01/03 07:53:39;;;;;;;2.27;1.47;;;5.70;99.90;;;;;;5096098;28;20024;-73
2023/01/03 07:56:13;;;;;;;1.70;1.20;;;5.60;99.90;;;;;;5113875;28;20023;-73
2023/01/03 07:58:40;;;;;;;1.67;1.43;;;5.60;99.90;;;;;;5096082;28;20028;-72
2023/01/03 08:01:07;;;;;;;4.77;1.53;;;5.60;99.90;;;;;;5095447;28;20040;-73
2023/01/03 08:03:35;;;;;;;2.37;1.50;;;5.60;99.90;;;;;;5096134;28;20031;-72
2023/01/03 08:06:03;;;;;;;3.17;1.60;;;5.70;99.90;;;;;;5113662;28;20107;-73
2023/01/03 08:08:29;;;;;;;3.27;1.40;;;5.70;99.90;;;;;;5095534;28;20023;-73
2023/01/03 08:13:39;;;;;;;2.10;1.20;;;5.70;99.90;;;;;;5114144;28;20034;-73
2023/01/03 08:16:09;;;;;;;1.83;1.20;;;5.70;99.90;;;;;;5113647;28;20023;-72
2023/01/03 08:18:34;;;;;;;2.47;1.93;;;5.70;99.90;;;;;;5095500;28;20092;-72
2023/01/03 08:21:00;;;;;;;2.03;1.33;;;5.70;99.90;;;;;;5113594;28;20028;-73
2023/01/03 08:23:26;;;;;;;2.10;1.50;;;5.60;99.90;;;;;;5095904;28;20388;-73
2023/01/03 08:25:58;;;;;;;3.63;1.60;;;5.60;99.90;;;;;;5095566;28;20392;-72
2023/01/03 08:28:23;;;;;;;;;;;5.70;99.90;;;;;;5096159;28;20112;-73
2023/01/03 08:30:49;;;;;;;2.43;1.43;;;5.70;99.90;;;;;;5095599;28;19954;-72
2023/01/03 08:33:17;;;;;;;1.83;1.53;;;5.80;99.90;;;;;;5094938;28;20361;-72
2023/01/03 08:35:46;;;;;;;4.27;1.80;;;5.80;99.90;;;;;;5113710;28;20057;-72
2023/01/03 08:38:17;;;;;;;3.97;1.93;;;5.90;99.90;;;;;;5094835;28;20024;-73
2023/01/03 08:40:44;;;;;;;5.80;2.23;;;6.00;99.90;;;;;;5113372;28;20027;-72
2023/01/03 08:43:12;;;;;;;4.00;2.50;;;6.10;99.90;;;;;;5094456;28;20080;-72
2023/01/03 08:45:38;;;;;;;5.27;2.70;;;6.20;99.90;;;;;;5095495;28;20031;-72
2023/01/03 08:48:05;;;;;;;3.30;2.20;;;6.30;99.90;;;;;;5112943;28;20024;-73
2023/01/03 08:50:31;;;;;;;6.23;2.07;;;6.40;99.90;;;;;;5095438;28;20050;-73
2023/01/03 08:52:57;;;;;;;3.37;2.20;;;6.40;99.90;;;;;;5095194;28;20464;-73
2023/01/03 08:55:23;;;;;;;3.83;2.47;;;6.40;99.90;;;;;;5113260;28;20110;-72
2023/01/03 08:57:48;;;;;;;3.20;2.50;;;6.40;99.90;;;;;;5113460;28;20110;-72
2023/01/03 09:00:14;;;;;;;2.97;2.13;;;6.30;99.90;;;;;;5112793;28;20452;-72
2023/01/03 09:02:40;;;;;;;6.83;2.80;;;6.30;99.90;;;;;;5095304;28;20027;-72
2023/01/03 09:05:06;;;;;;;6.87;2.47;;;6.30;99.90;;;;;;5094578;28;20519;-72
2023/01/03 09:07:32;;;;;;;5.63;2.43;;;6.40;99.90;;;;;;5094916;28;20024;-72
2023/01/03 09:09:57;;;;;;;3.83;2.73;;;6.40;99.90;;;;;;5095140;28;20024;-72
2023/01/03 09:12:23;;;;;;;5.70;2.80;;;6.40;99.90;;;;;;5094275;28;20473;-72
2023/01/03 09:14:48;;;;;;;3.57;2.10;;;6.50;99.90;;;;;;5112813;28;20023;-73
2023/01/03 09:17:14;;;;;;;4.97;2.57;;;6.50;99.90;;;;;;5094277;28;20051;-72
2023/01/03 09:19:39;;;;;;;4.27;2.47;;;6.50;99.90;;;;;;5095117;28;20020;-72
2023/01/03 09:22:05;;;;;;;3.90;2.30;;;6.60;99.90;;;;;;5094404;28;20040;-73
2023/01/03 09:24:31;;;;;;;3.73;2.10;;;6.70;99.90;;;;;;5112987;28;20027;-72
2023/01/03 09:26:56;;;;;;;3.53;2.33;;;6.80;99.90;;;;;;5094751;28;20027;-72
2023/01/03 09:29:22;;;;;;;3.50;2.07;;;6.80;99.90;;;;;;5094239;28;20059;-73
2023/01/03 09:31:47;;;;;;;4.23;2.50;;;6.90;99.90;;;;;;5112763;28;20389;-72
2023/01/03 09:34:13;;;;;;;5.47;2.90;;;6.90;99.90;;;;;;5112190;28;20024;-72
2023/01/03 09:36:39;;;;;;;3.73;2.23;;;6.90;99.90;;;;;;5113082;28;20425;-72
2023/01/03 09:39:05;;;;;;;3.53;2.17;;;6.90;99.90;;;;;;5094182;28;20025;-73
2023/01/03 09:41:31;;;;;;;5.13;2.40;;;7.00;99.90;;;;;;5094514;28;20035;-73
2023/01/03 09:44:05;;;;;;;3.35;2.40;;;7.00;99.90;;;;;;5094553;28;20469;-72
2023/01/03 09:46:32;;;;;;;3.70;2.10;;;7.00;99.90;;;;;;5094894;28;20473;-72
2023/01/03 09:48:59;;;;;;;4.93;2.60;;;7.10;99.90;;;;;;5112836;28;20023;-73
2023/01/03 10:06:09;;;;;;;4.95;2.28;;;7.50;99.90;;;;;;5116731;28;20050;-73
2023/01/03 10:08:54;;;;;;;3.72;1.98;;;7.60;99.90;;;;;;5098268;28;20020;-73
2023/01/03 10:11:48;;;;;;;4.28;2.28;;;7.60;99.90;;;;;;5097639;28;20038;-73
2023/01/03 10:14:37;;;;;;;3.70;1.88;;;7.80;99.90;;;;;;5094574;28;20396;-73
2023/01/03 10:17:14;;;;;;;5.65;2.20;;;7.80;99.90;;;;;;5080157;28;20074;-72
2023/01/03 10:19:43;;;;;;;2.90;1.95;;;7.80;99.90;;;;;;5098374;28;20096;-72
2023/01/03 10:22:19;;;;;;;5.18;2.08;;;7.90;99.90;;;;;;5097406;28;20122;-73
2023/01/03 10:25:11;;;;;;;7.82;1.80;;;7.90;99.90;;;;;;5097951;28;20028;-73
2023/01/03 10:27:42;;;;;;;;;;;8.00;99.90;;;;;;5098468;28;20442;-72
2023/01/03 10:30:26;;;;;;;2.47;1.70;;;8.10;99.90;;;;;;5097320;28;19912;-73
2023/01/03 10:33:13;;;;;;;2.08;1.60;;;8.20;99.90;;;;;;5116095;28;20024;-73
2023/01/03 10:35:39;;;;;;;1.90;1.60;;;8.30;99.90;;;;;;5116063;28;20469;-72
2023/01/03 10:38:04;;;;;;;2.33;1.88;;;8.30;99.90;;;;;;5097468;28;20020;-76
2023/01/03 10:40:44;;;;;;;3.95;2.10;;;8.40;99.90;;;;;;5115868;28;20381;-73
2023/01/03 10:43:32;;;;;;;5.30;2.53;;;8.40;99.90;;;;;;5097211;28;20037;-73
2023/01/03 10:46:13;;;;;;;3.38;1.98;;;8.50;99.90;;;;;;5097513;28;20019;-73
2023/01/03 10:48:47;;;;;;;3.22;1.83;;;8.60;99.90;;;;;;5097138;28;20028;-73
2023/01/03 10:51:34;;;;;;;5.38;2.25;;;8.60;99.90;;;;;;5096952;28;20032;-73
2023/01/03 10:54:10;;;;;;;3.50;2.00;;;8.70;99.90;;;;;;5115623;28;20027;-73
2023/01/03 10:56:36;;;;;;;2.97;1.83;;;8.80;99.90;;;;;;5097266;28;20059;-73
2023/01/03 10:59:12;;;;;;;3.33;2.00;;;8.80;99.90;;;;;;5097268;28;20051;-73
2023/01/03 11:01:38;;;;;;;3.17;2.13;;;8.90;99.90;;;;;;5115411;28;20089;-73
2023/01/03 11:04:13;;;;;;;4.03;2.00;;;8.90;99.90;;;;;;5115432;28;20036;-73
2023/01/03 11:06:56;;;;;;;4.35;2.10;;;9.00;99.90;;;;;;5097392;28;20055;-73
2023/01/03 11:09:22;;;;;;;3.60;1.90;;;9.00;99.90;;;;;;5096602;28;20114;-73
2023/01/03 11:12:19;;;;;;;3.13;2.00;;;9.00;99.90;;;;;;5115229;28;20511;-73
2023/01/03 11:14:50;;;;;;;3.58;2.10;;;9.00;99.90;;;;;;5115209;28;20028;-73
2023/01/03 11:17:19;;;;;;;3.58;2.20;;;9.10;99.90;;;;;;5096325;28;20048;-73
2023/01/03 11:19:44;;;;;;;2.47;2.00;;;9.10;99.90;;;;;;5096904;28;20055;-73
2023/01/03 11:22:43;;;;;;;3.72;2.15;;;9.10;99.90;;;;;;5096236;28;20066;-73
2023/01/03 11:25:15;;;;;;;4.75;2.20;;;9.10;99.90;;;;;;5096261;28;20031;-74
2023/01/03 11:28:31;;;;;;;4.05;1.95;;;9.10;99.90;;;;;;5096688;28;20038;-72
2023/01/03 11:31:20;;;;;;;5.28;2.22;;;9.20;99.90;;;;;;5058520;28;20043;-72
2023/01/03 11:34:15;;;;;;;1.75;1.42;;;9.20;99.90;;;;;;5115213;28;20080;-73
2023/01/03 11:36:43;;;;;;;2.72;1.70;;;9.30;99.90;;;;;;5114931;28;20030;-73
2023/01/03 11:39:47;;;;;;;2.35;1.52;;;9.40;99.90;;;;;;5113982;28;20027;-75
2023/01/03 11:42:26;;;;;;;2.22;1.70;;;9.40;99.90;;;;;;5095797;28;20023;-73
2023/01/03 11:45:04;;;;;;;3.55;1.70;;;9.50;99.90;;;;;;5096504;28;20472;-73
2023/01/03 11:47:44;;;;;;;3.10;1.88;;;9.50;99.90;;;;;;5113847;28;20070;-73
2023/01/03 11:50:53;;;;;;;2.10;1.70;;;9.50;99.90;;;;;;5095834;28;20460;-74
2023/01/03 11:53:40;;;;;;;3.42;1.30;;;9.50;99.90;;;;;;5048133;28;20061;-72
2023/01/03 11:56:16;;;;;;;1.67;1.15;;;9.60;99.90;;;;;;5095999;28;20024;-73
2023/01/03 11:58:50;;;;;;;2.13;1.02;;;9.60;99.90;;;;;;5095705;28;20039;-73
2023/01/03 12:01:35;;;;;;;2.00;1.05;;;9.70;99.90;;;;;;5095708;28;20039;-72
2023/01/03 12:04:19;;;;;;;2.35;0.77;;;9.70;99.90;;;;;;5096303;28;20130;-72
2023/01/03 12:07:10;;;;;;;1.15;0.70;;;9.80;99.90;;;;;;5096104;28;20062;-73
2023/01/03 12:10:15;;;;;;;1.25;0.93;;;10.00;99.90;;;;;;5096089;28;20024;-73
2023/01/03 12:12:52;;;;;;;8.43;2.85;;;10.10;99.90;;;;;;5096025;28;20023;-73
2023/01/03 12:15:35;;;;;;;2.20;1.33;;;10.30;99.90;;;;;;5095461;28;20118;-73
2023/01/03 12:18:12;;;;;;;2.80;1.10;;;10.40;99.90;;;;;;5113456;28;20194;-74
2023/01/03 12:20:44;;;;;;;3.60;1.23;;;10.60;99.90;;;;;;5096004;28;20047;-72
2023/01/03 12:23:31;;;;;;;1.55;0.90;;;10.90;99.90;;;;;;5114064;28;20096;-73
2023/01/03 12:26:03;;;;;;;1.73;0.85;;;11.20;99.90;;;;;;5095388;28;20130;-72
2023/01/03 12:28:39;;;;;;;2.00;0.60;;;11.50;99.90;;;;;;5095106;28;20024;-73
2023/01/03 12:31:11;;;;;;;2.17;1.40;;;11.70;99.90;;;;;;5095797;28;20118;-72
2023/01/03 12:33:42;;;;;;;1.65;1.00;;;11.80;99.90;;;;;;5095426;28;20023;-73
2023/01/03 12:36:33;;;;;;;2.75;1.17;;;11.80;99.90;;;;;;5095363;28;20089;-72
2023/01/03 12:39:32;;;;;;;2.55;0.80;;;11.70;99.90;;;;;;5113683;28;20023;-74
2023/01/03 12:42:01;;;;;;;2.38;0.98;;;11.60;99.90;;;;;;5113360;28;20027;-73
2023/01/03 12:44:35;;;;;;;5.45;1.80;;;11.70;99.90;;;;;;5094738;28;20065;-72
2023/01/03 12:47:02;;;;;;;4.32;1.20;;;11.70;99.90;;;;;;5095480;28;20109;-73
2023/01/03 12:49:31;;;;;;;1.42;1.00;;;11.70;99.90;;;;;;5112596;28;20027;-73
2023/01/03 12:51:58;;;;;;;3.45;0.88;;;11.70;99.90;;;;;;5095119;28;20118;-73
2023/01/03 12:54:32;;;;;;;1.88;1.20;;;11.50;99.90;;;;;;5094728;28;20019;-73
2023/01/03 12:57:28;;;;;;;1.45;0.73;;;11.50;99.90;;;;;;5095108;28;20038;-73
2023/01/03 13:00:25;;;;;;;3.10;0.80;;;11.50;99.90;;;;;;5095130;28;20126;-74
2023/01/03 13:03:00;;;;;;;1.73;0.47;;;11.60;99.90;;;;;;5113445;28;20099;-73
2023/01/03 13:05:49;;;;;;;1.40;0.70;;;11.80;99.90;;;;;;5094567;28;20035;-73
2023/01/03 13:09:09;;;;;;;0.80;0.50;;;12.00;99.90;;;;;;5079133;28;20031;-73
2023/01/03 13:11:47;;;;;;;1.80;0.68;;;12.10;99.90;;;;;;4993510;28;20033;-73
2023/01/03 13:14:27;;;;;;;0.60;0.60;;;12.10;99.90;;;;;;5082204;28;20036;-72
2023/01/03 13:17:13;;;;;;;1.40;0.50;;;12.20;99.90;;;;;;5112924;28;20578;-72
2023/01/03 13:19:39;;;;;;;2.20;1.40;;;12.10;99.90;;;;;;5094546;28;20030;-72
2023/01/03 13:22:27;;;;;;;1.73;0.70;;;12.10;99.90;;;;;;5094751;28;20059;-72
2023/01/03 13:24:52;;;;;;;1.00;0.85;;;12.30;99.90;;;;;;5094649;28;20076;-73
2023/01/03 13:27:19;;;;;;;1.90;0.60;;;12.40;99.90;;;;;;5094249;28;20118;-73
2023/01/03 13:29:47;;;;;;;3.33;0.77;;;12.30;99.90;;;;;;5115574;28;20020;-72
2023/01/03 13:32:19;;;;;;;3.15;0.98;;;12.20;99.90;;;;;;5099002;28;20037;-73
2023/01/03 13:35:04;;;;;;;3.28;1.10;;;12.10;99.90;;;;;;5098966;28;20028;-73
2023/01/03 13:37:45;;;;;;;1.67;0.73;;;12.00;99.90;;;;;;5098316;28;20499;-73
2023/01/03 13:40:20;;;;;;;1.02;0.60;;;11.80;99.90;;;;;;5117175;28;20024;-73
2023/01/03 13:42:46;;;;;;;3.00;0.70;;;11.70;99.90;;;;;;5099116;28;20046;-72
2023/01/03 13:45:14;;;;;;;0.75;0.57;;;11.60;99.90;;;;;;5116908;28;20027;-73
2023/01/03 13:47:41;;;;;;;1.40;0.60;;;11.70;99.90;;;;;;5116444;28;20041;-72
2023/01/03 13:50:22;;;;;;;2.10;0.65;;;11.90;99.90;;;;;;5098309;28;20023;-73
2023/01/03 13:53:02;;;;;;;1.15;0.52;;;11.70;99.90;;;;;;5098586;28;20028;-74
2023/01/03 13:55:37;;;;;;;1.35;0.70;;;11.60;99.90;;;;;;5098058;28;20023;-72
2023/01/03 13:58:24;;;;;;;1.60;0.50;;;11.90;99.90;;;;;;5098409;28;20126;-73
2023/01/03 14:00:51;;;;;;;1.75;0.80;;;12.10;99.90;;;;;;5116546;28;20066;-73
2023/01/03 14:04:07;;;;;;;2.97;0.77;;;12.20;99.90;;;;;;5097914;28;20460;-77
2023/01/03 14:07:14;;;;;;;1.42;1.02;;;12.20;99.90;;;;;;5077275;28;20380;-73
2023/01/03 14:09:59;;;;;;;1.30;0.75;;;12.30;99.90;;;;;;5097705;28;20028;-73
2023/01/03 14:12:58;;;;;;;1.65;0.70;;;12.30;99.90;;;;;;5096902;28;20035;-73
2023/01/03 14:15:25;;;;;;;1.35;0.70;;;12.10;99.90;;;;;;5115915;28;20346;-73
2023/01/03 14:18:13;;;;;;;1.13;0.45;;;12.00;99.90;;;;;;5097899;28;20047;-73
2023/01/03 14:20:45;;;;;;;4.00;0.70;;;11.80;99.90;;;;;;5096430;28;20122;-73
2023/01/03 14:23:14;;;;;;;4.65;1.48;;;11.70;99.90;;;;;;5098049;28;20036;-73
2023/01/03 14:25:41;;;;;;;5.47;2.47;;;11.70;99.90;;;;;;5097428;28;20020;-72